Henderson, Nevada Weather observations

Data are for observation ending at time listed.
 Day   Time    Ave.   Ave.  Ave.  Vector   Max.   Stn.    Total    Solar   Ave.  
  of    of     Air    Rel.  Wind   Wind    Wind   Baro.  Precip.   Rad.    Soil  
Year   Day     Temp.  Hum.  Speed  Dir.    Gust   Pres.                    Temp. 
2014   (PST)    F      %     mph   deg.    mph     mb.     in.     W/m2     F   
------------------------------------------------------------------------------
 303   20:30   70.9    20    0.8   171      1.6   937.5    0.00       0    67.4
 303   20:40   69.2    22    1.4   187      3.1   937.5    0.00       0    66.4
 303   20:50   68.5    23    0.7   129      1.5   937.4    0.00       0    65.6
 303   21:00   68.3    24    2.0   171      5.9   937.4    0.00       0    65.0
 303   21:10   70.5    23    4.0   185      8.0   937.4    0.00       0    65.3
 303   21:20   72.0    22    1.7   155      5.1   937.4    0.00       0    66.4
 303   21:30   71.8    22    1.5   134      3.0   937.4    0.00       0    66.9
 303   21:40   70.1    24    1.4   333      2.6   937.4    0.00       0    66.6
 303   21:50   68.4    26    0.4   279      2.8   937.5    0.00       0    65.7
 303   22:00   67.4    27    0.3   212      2.1   937.4    0.00       0    65.0
 303   22:10   66.8    27    0.6   129      2.0   937.2    0.00       0    64.3
 303   22:20   66.7    28    1.2   130      2.3   937.1    0.00       0    63.8
 303   22:30   67.9    26    1.7   151      3.0   937.0    0.00       0    63.7
 303   22:40   68.4    26    0.9   184      2.4   936.9    0.00       0    64.0
 303   22:50   66.8    28    2.6   291      5.3   936.9    0.00       0    64.0
 303   23:00   67.5    26    3.2   263      5.0   937.1    0.00       0    64.2
 303   23:10   67.6    25    1.7   232      4.2   937.1    0.00       0    64.3
 303   23:20   67.9    25    0.6   163      1.7   937.1    0.00       0    64.2
 303   23:30   67.5    26    1.3   103      3.9   936.9    0.00       0    64.4
 303   23:40   66.9    26    0.4   128      1.6   936.9    0.00       0    64.4
 303   23:50   66.6    28    1.1   192      2.3   936.9    0.00       0    64.2
 304    0:00   66.4    28    1.5   186      3.5   936.9    0.00       0    63.9
 304    0:10   67.0    26    1.8   189      4.1   936.8    0.00       0    63.9
 304    0:20   67.1    26    2.0   179      3.1   936.7    0.00       0    63.7
 304    0:30   67.2    26    1.8   200      3.5   936.6    0.00       0    63.4
 304    0:40   66.5    28    2.5   207      3.8   936.6    0.00       0    63.2
 304    0:50   66.6    27    2.0   203      3.1   936.6    0.00       0    63.2
 304    1:00   66.9    27    2.1   195      4.0   936.6    0.00       0    63.2
 304    1:10   67.6    26    1.4   180      3.0   936.5    0.00       0    63.5
 304    1:20   67.3    27    2.8   201      5.7   936.6    0.00       0    63.6
 304    1:30   68.7    26    2.1   167      5.8   936.5    0.00       0    64.3
 304    1:40   68.5    26    1.4   176      3.6   936.4    0.00       0    64.4
 304    1:50   67.0    28    1.0   217      2.7   936.4    0.00       0    64.0
 304    2:00   65.2    29    1.5   208      4.6   936.3    0.00       0    63.2
 304    2:10   65.1    29    1.7   210      4.7   936.3    0.00       0    62.5
 304    2:20   65.4    29    2.1   198      4.0   936.2    0.00       0    62.0
 304    2:30   65.5    29    0.9   167      3.1   936.0    0.00       0    61.6
 304    2:40   64.1    30    0.8   190      2.9   935.9    0.00       0    61.0
 304    2:50   63.5    31    1.3   116      2.6   935.7    0.00       0    60.4
 304    3:00   64.1    29    1.8   154      3.1   935.8    0.00       0    60.1
 304    3:10   63.7    30    1.1   153      2.3   935.8    0.00       0    59.8
 304    3:20   64.4    29    0.9   172      2.3   935.7    0.00       0    59.6
 304    3:30   64.5    29    1.2   130      2.3   935.6    0.00       0    59.3
 304    3:40   64.0    30    1.2   136      2.5   935.6    0.00       0    59.2
 304    3:50   64.7    28    2.1   169      4.7   935.6    0.00       0    59.1
 304    4:00   66.0    27    2.6   185      4.7   935.6    0.00       0    59.4
 304    4:10   66.9    26    2.2   182      5.3   935.7    0.00       0    60.0
 304    4:20   65.9    28    1.3   191      3.0   935.7    0.00       0    60.1
 304    4:30   64.7    29    0.6   162      1.4   935.8    0.00       0    59.9
 304    4:40   64.0    30    0.9   123      1.5   935.8    0.00       0    59.7
 304    4:50   64.0    30    1.1   201      3.0   935.8    0.00       0    59.6
 304    5:00   62.0    33    1.4   270      5.2   935.8    0.00       0    59.3
 304    5:10   61.5    33    1.0   159      2.2   935.8    0.00       0    58.9
 304    5:20   61.2    35    0.7   310      3.9   935.8    0.00       0    58.5
 304    5:30   60.8    35    1.2   217      2.3   935.8    0.00       0    58.0
 304    5:40   60.4    36    0.9   240      1.8   935.7    0.00       0    57.4
 304    5:50   59.3    37    0.8   196      2.4   935.6    0.00       0    56.7
 304    6:00   59.0    38    0.5   114      1.5   935.6    0.00       4    56.0
 304    6:10   58.3    39    0.3   190      1.7   935.7    0.00       7    55.4
 304    6:20   58.7    38    1.3   254      3.6   935.6    0.00       8    55.0
 304    6:30   58.9    37    1.4   252      2.6   935.7    0.00      37    54.8
 304    6:40   61.1    33    1.9   247      3.3   935.7    0.00      73    55.2
 304    6:50   63.8    30    1.0   256      2.7   935.8    0.00     109    57.6
 304    7:00   66.3    28    0.8   259      1.8   935.9    0.00     144    60.5
 304    7:10   69.7    26    0.1   290      1.0   936.1    0.00     176    63.1
 304    7:20   70.2    26    0.3   285      0.9   936.3    0.00     206    65.6
 304    7:30   70.8    26    1.0    93      2.3   936.4    0.00     241    67.9
 304    7:40   69.2    27    2.1   105      3.4   936.4    0.00     274    69.7
 304    7:50   69.2    27    2.5   102      3.4   936.4    0.00     309    70.6
 304    8:00   69.6    26    2.1   108      3.4   936.4    0.00     339    71.1
 304    8:10   70.1    25    1.9   106      3.3   936.4    0.00     373    70.8
 304    8:20   71.3    24    1.2   113      2.6   936.5    0.00     403    70.6
 304    8:30   72.6    22    1.1   115      2.9   936.4    0.00     434    71.9
 304    8:40   74.2    22    0.7   131      2.2   936.4    0.00     464    74.5
 304    8:50   75.5    20    0.7    52      2.0   936.4    0.00     494    76.9
 304    9:00   76.0    20    0.9    56      2.0   936.3    0.00     520    79.0
 304    9:10   76.5    19    1.1    26      3.3   936.3    0.00     546    80.8
 304    9:20   76.7    20    1.4    56      3.0   936.2    0.00     571    82.3
 304    9:30   76.7    19    1.0    68      3.4   936.2    0.00     591    83.4
 304    9:40   76.9    20    1.4    89      3.1   936.0    0.00     613    84.4
 304    9:50   77.6    19    0.9    90      2.2   935.9    0.00     633    85.2
 304   10:00   79.4    18    1.4   300      3.7   935.7    0.00     653    86.6
 304   10:10   79.6    18    1.4   238      4.0   935.6    0.00     670    87.7
 304   10:20   81.2    17    3.8   103     11.0   935.5    0.00     687    88.6
 304   10:30   81.4    17    4.9   104     10.7   935.5    0.00     700    88.6
 304   10:40   82.3    16    3.5   112      7.8   935.3    0.00     712    89.1
 304   10:50   81.7    18    1.8   333      5.5   935.2    0.00     721    89.3
 304   11:00   82.4    16    3.1   117      7.3   934.8    0.00     728    89.1
 304   11:10   82.7    16    4.4   111     10.4   934.6    0.00     730    88.7
 304   11:20   83.2    16    4.2   136     12.7   934.4    0.00     735    88.5
 304   11:30   83.4    16    4.9   123     10.2   934.2    0.00     738    88.5
 304   11:40   84.1    15    3.6   136      7.4   934.0    0.00     737    88.6
 304   11:50   84.2    15    5.9   124     14.2   933.7    0.00     731    88.8
 304   12:00   83.9    15    6.7   122     12.6   933.3    0.00     728    88.4
 304   12:10   84.2    15    5.8   141     14.0   933.1    0.00     728    88.1
 304   12:20   84.6    15    6.3   113     14.9   932.8    0.00     715    88.1
 304   12:30   84.7    16    4.6   119     11.9   932.6    0.00     695    87.9
 304   12:40   84.4    16    4.6   142     12.3   932.4    0.00     691    87.6
 304   12:50   84.3    16    5.8   128     17.0   932.3    0.00     674    87.3
 304   13:00   84.5    16    6.9   136     15.6   932.1    0.00     655    86.8
 304   13:10   84.5    16    6.9   122     16.5   931.9    0.00     644    86.3
 304   13:20   84.8    16    5.7   138     12.7   931.8    0.00     629    86.0
 304   13:30   84.1    16    7.6   135     14.0   931.6    0.00     612    85.6
 304   13:40   84.2    16    5.9   146     16.1   931.4    0.00     591    85.0
 304   13:50   84.7    15    5.9   155     16.0   931.3    0.00     558    84.6
 304   14:00   84.3    16    6.3   136     17.1   931.2    0.00     532    84.2
 304   14:10   83.5    17    5.9   137     12.5   931.1    0.00     493    83.7
 304   14:20   83.8    16    6.5   136     14.9   931.0    0.00     447    83.3
 304   14:30   83.1    17    6.7   124     15.9   931.0    0.00     373    82.9
 304   14:40   83.0    15    6.2   151     17.2   931.0    0.00     290    82.6
 304   14:50   82.8    14    6.1   140     13.8   931.0    0.00     204    82.3
 304   15:00   82.2    15    6.5   139     15.5   930.9    0.00     169    82.0
 304   15:10   82.1    15    6.7   136     18.9   930.8    0.00     157    81.6
 304   15:20   81.9    16    5.8   137     12.8   930.6    0.00     146    81.4
 304   15:30   81.8    16    6.2   144     16.6   930.7    0.00     133    81.1
 304   15:40   81.6    16    6.6   151     13.7   930.6    0.00     184    80.8
 304   15:50   81.7    14    6.2   153     13.0   930.5    0.00     170    80.5
 304   16:00   81.5    14    5.8   149     14.4   930.4    0.00     130    80.3
 304   16:10   81.1    14    6.7   140     17.6   930.4    0.00      91    80.0
 304   16:20   80.7    14    6.0   143     12.3   930.4    0.00      57    79.6
 304   16:30   80.3    14    5.6   143     12.0   930.4    0.00      33    79.1
 304   16:40   80.0    15    4.2   135      9.8   930.3    0.00      16    78.5
 304   16:50   79.7    14    5.9   144     13.1   930.2    0.00       7    77.9
 304   17:00   79.1    15    4.7   148     10.5   930.2    0.00       6    77.3
 304   17:10   78.9    16    4.5   144     11.5   930.2    0.00       0    76.7
 304   17:20   78.6    16    5.3   139     10.7   930.2    0.00       0    76.1
 304   17:30   78.6    17    6.3   135     18.2   930.2    0.00       0    75.9
 304   17:40   78.2    17    6.0   140     12.6   930.1    0.00       0    75.8
 304   17:50   78.0    18    6.4   146     15.8   930.0    0.00       0    75.6
 304   18:00   77.7    18    5.6   139     15.9   929.9    0.00       0    75.4
 304   18:10   77.5    18    5.9   152     14.3   929.8    0.00       0    75.1
 304   18:20   77.3    18    5.7   156     15.6   929.9    0.00       0    74.9
 304   18:30   77.4    18    7.2   157     19.4   929.8    0.00       0    74.8
 304   18:40   77.4    18    7.2   161     15.9   929.7    0.00       0    74.8
 304   18:50   77.1    18    6.8   162     14.2   929.6    0.00       0    74.8
 304   19:00   76.5    19    5.0   160     15.3   929.6    0.00       0    74.5
 304   19:10   76.2    19    5.9   161     14.1   929.6    0.00       0    74.1
 304   19:20   75.9    20    6.3   164     14.4   929.7    0.00       0    73.8
 304   19:30   75.7    20    5.7   161     13.8   929.7    0.00       0    73.5
 304   19:40   75.5    21    5.3   163     13.2   929.7    0.00       0    73.3
 304   19:50   75.2    21    4.7   165     13.5   929.7    0.00       0    73.0
 304   20:00   74.8    22    4.0   165     11.7   929.6    0.00       0    72.6
 304   20:10   74.7    22    4.8   150     13.6   929.5    0.00       0    72.3
 304   20:20   74.6    24    4.9   152     11.5   929.4    0.00       0    72.2

Return to Henderson, Nevada graphs page.


Western Regional Climate Center,wrcc@dri.edu